Time;durP1;ratioP1;P1;durP2;ratioP2;P2;SDS_P1;SDS_P2;PMS_P1;PMS_P2;Temp;Humidity;BMP_temperature;BMP_pressure;BME280_temperature;BME280_humidity;BME280_pressure;Samples;Min_cycle;Max_cycle;Signal;HPM_P1;HPM_P2
2023/12/19 00:00:58;;;;;;;14.20;13.80;;;21.50;51.90;;;;;;5002793;28;20478;-69
2023/12/19 00:03:25;;;;;;;14.37;13.97;;;21.50;51.90;;;;;;5001405;28;20495;-69
2023/12/19 00:05:53;;;;;;;14.80;14.30;;;21.50;51.90;;;;;;5004924;28;20479;-68
2023/12/19 00:08:19;;;;;;;14.70;14.30;;;21.50;51.90;;;;;;5005827;28;20473;-68
2023/12/19 00:10:47;;;;;;;15.00;14.60;;;21.50;52.00;;;;;;5004221;28;20473;-67
2023/12/19 00:13:14;;;;;;;15.60;15.10;;;21.50;52.00;;;;;;5001846;28;20470;-68
2023/12/19 00:15:41;;;;;;;15.60;14.90;;;21.50;52.00;;;;;;5003156;28;20474;-67
2023/12/19 00:18:09;;;;;;;15.20;14.80;;;21.50;52.00;;;;;;5005655;28;20510;-68
2023/12/19 00:20:36;;;;;;;14.97;14.47;;;21.50;52.00;;;;;;5005576;28;20485;-67
2023/12/19 00:23:03;;;;;;;16.00;15.50;;;21.50;51.90;;;;;;5002177;28;20491;-67
2023/12/19 00:25:31;;;;;;;16.03;15.63;;;21.40;51.90;;;;;;5025480;23;21067;-70
2023/12/19 00:27:59;;;;;;;14.00;13.60;;;21.40;51.90;;;;;;5013451;28;20434;-70
2023/12/19 00:30:26;;;;;;;15.00;14.50;;;21.40;51.90;;;;;;5013707;28;20450;-70
2023/12/19 00:32:53;;;;;;;14.70;14.30;;;21.40;51.90;;;;;;5013689;28;20818;-70
2023/12/19 00:35:22;;;;;;;16.00;15.50;;;21.40;51.90;;;;;;5005377;28;20489;-70
2023/12/19 00:37:48;;;;;;;14.70;14.30;;;21.40;51.80;;;;;;5002848;28;20509;-71
2023/12/19 00:40:15;;;;;;;14.83;14.43;;;21.40;51.90;;;;;;5002145;28;20474;-70
2023/12/19 00:42:42;;;;;;;14.77;14.37;;;21.40;52.00;;;;;;5002754;28;20481;-70
2023/12/19 00:45:11;;;;;;;15.37;14.93;;;21.40;52.00;;;;;;5005126;28;20457;-71
2023/12/19 00:47:38;;;;;;;15.43;14.93;;;21.30;51.90;;;;;;5004097;28;20477;-70
2023/12/19 00:50:07;;;;;;;14.40;13.90;;;21.40;51.90;;;;;;5001688;28;20522;-71
2023/12/19 00:52:36;;;;;;;14.23;13.83;;;21.30;51.90;;;;;;5001848;28;20538;-70
2023/12/19 00:55:03;;;;;;;14.60;14.20;;;21.30;51.90;;;;;;5004949;28;20493;-70
2023/12/19 00:57:30;;;;;;;14.83;14.33;;;21.30;52.00;;;;;;5004399;28;20517;-71
2023/12/19 00:59:57;;;;;;;14.70;14.20;;;21.30;51.90;;;;;;5002234;28;20498;-71
2023/12/19 01:02:24;;;;;;;14.77;14.37;;;21.30;52.00;;;;;;5001637;28;20449;-70
2023/12/19 01:04:51;;;;;;;13.93;13.43;;;21.30;52.00;;;;;;5002791;28;20489;-70
2023/12/19 01:07:18;;;;;;;15.10;14.70;;;21.30;52.00;;;;;;5004936;28;20529;-71
2023/12/19 01:09:46;;;;;;;14.53;14.13;;;21.30;52.00;;;;;;5003778;28;20450;-70
2023/12/19 01:12:13;;;;;;;14.63;14.13;;;21.30;52.00;;;;;;5001326;28;20868;-70
2023/12/19 01:14:41;;;;;;;14.30;13.90;;;21.30;52.00;;;;;;5001038;28;20466;-70
2023/12/19 01:17:08;;;;;;;15.70;15.27;;;21.30;52.10;;;;;;5004751;28;20470;-70
2023/12/19 01:19:35;;;;;;;14.47;13.77;;;21.30;52.10;;;;;;5004624;28;20950;-70
2023/12/19 01:22:02;;;;;;;14.17;13.73;;;21.30;52.20;;;;;;5001122;28;20494;-70
2023/12/19 01:24:29;;;;;;;14.70;14.20;;;21.30;52.20;;;;;;5001055;28;20470;-70
2023/12/19 01:26:58;;;;;;;13.73;13.33;;;21.30;52.20;;;;;;5000740;28;20474;-71
2023/12/19 01:29:25;;;;;;;14.20;13.80;;;21.30;52.20;;;;;;5001272;28;20478;-70
2023/12/19 01:31:53;;;;;;;13.90;13.50;;;21.20;52.10;;;;;;5002834;28;20479;-70
2023/12/19 01:34:20;;;;;;;14.20;13.80;;;21.20;52.10;;;;;;5004315;28;20888;-70
2023/12/19 01:36:48;;;;;;;13.10;12.80;;;21.20;52.20;;;;;;5003202;28;20474;-70
2023/12/19 01:39:15;;;;;;;14.40;14.00;;;21.20;52.20;;;;;;4999983;28;20482;-70
2023/12/19 01:41:42;;;;;;;13.80;13.30;;;21.30;52.20;;;;;;5001226;28;20546;-70
2023/12/19 01:44:18;;;;;;;13.73;13.33;;;21.20;52.20;;;;;;5004195;28;20550;-70
2023/12/19 01:46:45;;;;;;;13.83;13.43;;;21.20;52.70;;;;;;5003406;28;20476;-70
2023/12/19 01:49:12;;;;;;;14.47;13.97;;;21.20;52.20;;;;;;5000740;28;20467;-70
2023/12/19 01:51:39;;;;;;;14.93;14.23;;;21.20;52.20;;;;;;5000095;28;20479;-70
2023/12/19 01:54:08;;;;;;;13.90;13.50;;;21.20;52.20;;;;;;5003976;28;20492;-70
2023/12/19 01:56:36;;;;;;;13.97;13.40;;;21.20;52.20;;;;;;5004113;28;20507;-69
2023/12/19 01:59:05;;;;;;;13.87;13.47;;;21.20;52.20;;;;;;5000437;28;20483;-70
2023/12/19 02:01:34;;;;;;;14.13;13.63;;;21.20;52.20;;;;;;5000478;28;20535;-70
2023/12/19 02:04:02;;;;;;;14.60;14.10;;;21.20;52.20;;;;;;5002834;28;20489;-70
2023/12/19 02:06:29;;;;;;;14.43;14.00;;;21.20;52.20;;;;;;5004068;28;20477;-70
2023/12/19 02:08:55;;;;;;;14.40;13.80;;;21.20;52.30;;;;;;5001519;28;20470;-70
2023/12/19 02:11:22;;;;;;;14.80;14.40;;;21.20;52.30;;;;;;4999769;28;20481;-70
2023/12/19 02:13:49;;;;;;;13.90;13.50;;;21.20;52.30;;;;;;5001638;28;21008;-70
2023/12/19 02:16:16;;;;;;;14.40;13.90;;;21.20;52.30;;;;;;5004029;28;20474;-70
2023/12/19 02:18:44;;;;;;;14.33;13.83;;;21.20;52.30;;;;;;5003094;28;21056;-71
2023/12/19 02:21:11;;;;;;;14.13;13.57;;;21.20;52.30;;;;;;5000321;28;20474;-70
2023/12/19 02:23:39;;;;;;;14.53;14.13;;;21.20;52.30;;;;;;4999585;28;20513;-71
2023/12/19 02:26:07;;;;;;;14.13;13.73;;;21.20;52.30;;;;;;4992492;28;20494;-71
2023/12/19 02:28:34;;;;;;;14.50;13.80;;;21.20;52.30;;;;;;5000339;28;20451;-70
2023/12/19 02:31:00;;;;;;;15.20;14.70;;;21.10;52.20;;;;;;5002983;28;20481;-70
2023/12/19 02:33:27;;;;;;;14.37;13.97;;;21.20;52.30;;;;;;5000442;28;20476;-71
2023/12/19 02:35:54;;;;;;;13.70;13.30;;;21.20;52.30;;;;;;5002156;28;20454;-70
2023/12/19 02:38:21;;;;;;;13.80;13.30;;;21.10;52.30;;;;;;5003468;28;20509;-71
2023/12/19 02:40:49;;;;;;;14.00;13.60;;;21.20;52.30;;;;;;5002379;28;20905;-70
2023/12/19 02:43:16;;;;;;;13.17;12.80;;;21.20;52.30;;;;;;5000215;28;20466;-71
2023/12/19 02:45:43;;;;;;;13.90;13.43;;;21.10;52.20;;;;;;4999904;28;20494;-71
2023/12/19 02:48:10;;;;;;;13.87;13.40;;;21.10;52.20;;;;;;4999282;28;20465;-70
2023/12/19 02:50:37;;;;;;;13.03;12.73;;;21.10;52.20;;;;;;4996274;28;20479;-70
2023/12/19 02:53:04;;;;;;;14.40;13.97;;;21.10;52.20;;;;;;5003022;28;20534;-71
2023/12/19 02:55:30;;;;;;;13.80;13.40;;;21.10;52.20;;;;;;5003273;28;20489;-71
2023/12/19 02:57:59;;;;;;;13.90;13.40;;;21.10;52.20;;;;;;5000412;28;20877;-71
2023/12/19 03:00:26;;;;;;;16.47;15.87;;;21.10;52.20;;;;;;4999974;28;20466;-71
2023/12/19 03:02:56;;;;;;;14.40;14.00;;;21.10;52.10;;;;;;5001371;28;20475;-71
2023/12/19 03:05:23;;;;;;;14.63;14.23;;;21.10;52.10;;;;;;5003602;28;20468;-71
2023/12/19 03:07:50;;;;;;;14.70;14.20;;;21.10;52.10;;;;;;5001492;28;20481;-71
2023/12/19 03:10:17;;;;;;;14.90;14.40;;;21.10;52.10;;;;;;5001139;28;20477;-70
2023/12/19 03:12:44;;;;;;;15.20;14.70;;;21.10;52.10;;;;;;5003812;28;20939;-71
2023/12/19 03:15:12;;;;;;;14.90;14.50;;;21.10;52.10;;;;;;5007104;28;21212;-70
2023/12/19 03:17:39;;;;;;;15.37;14.87;;;21.00;52.00;;;;;;5006935;28;20449;-70
2023/12/19 03:20:08;;;;;;;14.50;14.00;;;21.10;52.20;;;;;;5002727;28;20521;-71
2023/12/19 03:22:35;;;;;;;14.90;14.50;;;21.00;52.00;;;;;;5003595;28;20463;-71
2023/12/19 03:25:02;;;;;;;14.90;14.50;;;21.00;52.00;;;;;;5005771;28;20506;-70
2023/12/19 03:27:29;;;;;;;14.70;14.20;;;21.00;52.00;;;;;;5006650;28;20481;-71
2023/12/19 03:29:55;;;;;;;15.17;14.77;;;21.10;52.10;;;;;;5004772;28;20470;-70
2023/12/19 03:32:24;;;;;;;15.50;15.10;;;21.00;52.00;;;;;;5002209;28;20483;-71
2023/12/19 03:34:50;;;;;;;14.63;14.23;;;21.10;52.10;;;;;;4998800;28;20898;-71
2023/12/19 03:37:17;;;;;;;15.13;14.63;;;21.10;52.10;;;;;;5006544;28;20868;-71
2023/12/19 03:39:44;;;;;;;14.40;14.00;;;21.10;52.10;;;;;;5006032;28;20916;-70
2023/12/19 03:42:11;;;;;;;15.10;14.60;;;21.00;52.00;;;;;;5003270;28;20475;-70
2023/12/19 03:44:40;;;;;;;14.17;13.73;;;21.00;52.00;;;;;;5001974;28;20490;-70
2023/12/19 03:47:07;;;;;;;14.40;14.00;;;21.00;52.00;;;;;;5002924;28;20469;-70
2023/12/19 03:49:35;;;;;;;14.30;13.90;;;21.00;52.00;;;;;;5002914;28;20475;-70
2023/12/19 03:52:02;;;;;;;15.43;14.93;;;21.00;52.00;;;;;;5005449;28;20458;-70
2023/12/19 03:54:29;;;;;;;16.60;15.90;;;21.00;52.00;;;;;;5006223;28;20493;-70
2023/12/19 03:56:56;;;;;;;15.13;14.70;;;21.00;52.00;;;;;;5003797;28;20448;-70
2023/12/19 03:59:23;;;;;;;14.60;14.20;;;21.00;52.00;;;;;;5002718;28;20506;-70
2023/12/19 04:01:51;;;;;;;14.60;14.20;;;21.00;51.90;;;;;;5003375;28;20479;-70
2023/12/19 04:04:18;;;;;;;15.23;14.73;;;21.00;52.00;;;;;;5005958;28;20466;-70
2023/12/19 04:06:46;;;;;;;15.70;15.20;;;21.00;52.00;;;;;;5005735;28;20867;-70
2023/12/19 04:09:13;;;;;;;15.27;14.80;;;21.00;52.00;;;;;;5002073;28;20475;-70
2023/12/19 04:11:46;;;;;;;16.03;15.57;;;21.00;52.00;;;;;;5002861;28;20484;-70
2023/12/19 04:14:13;;;;;;;15.50;15.10;;;21.00;52.00;;;;;;4995032;28;20498;-70
2023/12/19 04:16:40;;;;;;;16.63;16.13;;;21.00;52.00;;;;;;5005744;28;20533;-70
2023/12/19 04:19:07;;;;;;;17.20;16.60;;;21.00;52.00;;;;;;5002537;28;20901;-70
2023/12/19 04:21:34;;;;;;;16.93;16.43;;;21.00;52.00;;;;;;5001472;28;20449;-69
2023/12/19 04:24:03;;;;;;;17.10;16.40;;;21.00;52.00;;;;;;5004351;28;20549;-69
2023/12/19 04:26:30;;;;;;;15.73;15.23;;;21.00;52.00;;;;;;4997318;28;20446;-70
2023/12/19 04:28:57;;;;;;;15.90;15.40;;;21.00;52.00;;;;;;5000364;28;20477;-70
2023/12/19 04:31:23;;;;;;;16.33;15.83;;;20.90;51.90;;;;;;5002394;28;20471;-70
2023/12/19 04:33:50;;;;;;;17.17;16.57;;;21.00;52.00;;;;;;5002795;28;20487;-70
2023/12/19 04:36:17;;;;;;;17.47;16.87;;;20.90;51.90;;;;;;5004892;28;20470;-70
2023/12/19 04:38:44;;;;;;;16.33;15.93;;;20.90;51.90;;;;;;5005308;28;20516;-70
2023/12/19 04:41:12;;;;;;;15.80;15.40;;;20.90;51.90;;;;;;5002223;28;20480;-70
2023/12/19 04:43:39;;;;;;;16.83;16.33;;;20.90;52.00;;;;;;5001932;28;20474;-69
2023/12/19 04:46:09;;;;;;;15.60;15.10;;;20.90;52.00;;;;;;5004611;28;20474;-70
2023/12/19 04:48:35;;;;;;;16.50;16.00;;;20.90;51.90;;;;;;5004781;28;20474;-69
2023/12/19 04:51:02;;;;;;;16.70;16.20;;;20.90;52.00;;;;;;5002888;28;20442;-70
2023/12/19 04:53:31;;;;;;;16.40;15.90;;;20.90;51.90;;;;;;5001669;28;20453;-69
2023/12/19 04:55:58;;;;;;;16.70;16.20;;;20.90;51.90;;;;;;5003310;28;20450;-69
2023/12/19 04:58:27;;;;;;;16.33;15.83;;;20.90;52.00;;;;;;5005214;28;20478;-69
2023/12/19 05:00:54;;;;;;;17.60;17.00;;;20.90;52.00;;;;;;5003201;28;20445;-69
2023/12/19 05:03:21;;;;;;;15.90;15.40;;;20.90;52.00;;;;;;5001670;28;20471;-70
2023/12/19 05:05:47;;;;;;;16.13;15.50;;;20.90;52.00;;;;;;5001563;28;20976;-70
2023/12/19 05:08:15;;;;;;;16.47;15.90;;;20.90;52.00;;;;;;5001749;28;20851;-70
2023/12/19 05:10:43;;;;;;;15.27;14.77;;;20.90;52.00;;;;;;4996292;28;20435;-70
2023/12/19 05:13:10;;;;;;;16.43;15.93;;;20.90;52.00;;;;;;5004441;28;20442;-70
2023/12/19 05:15:38;;;;;;;17.30;16.80;;;20.90;52.10;;;;;;5004663;28;20468;-70
2023/12/19 05:18:05;;;;;;;16.70;16.20;;;20.90;52.10;;;;;;5001431;28;20438;-70
2023/12/19 05:20:32;;;;;;;17.40;16.80;;;20.90;52.20;;;;;;5001358;28;20963;-70
2023/12/19 05:23:00;;;;;;;15.63;15.23;;;20.90;52.20;;;;;;5002691;28;20480;-70
2023/12/19 05:25:27;;;;;;;16.67;16.17;;;20.90;52.20;;;;;;5004365;28;20477;-70
2023/12/19 05:27:54;;;;;;;16.40;15.93;;;20.90;52.20;;;;;;5003533;28;20470;-70
2023/12/19 05:30:20;;;;;;;17.20;16.70;;;20.80;52.20;;;;;;5004465;28;20466;-70
2023/12/19 05:32:49;;;;;;;16.70;16.20;;;20.80;52.20;;;;;;5003804;28;20453;-70
2023/12/19 05:35:16;;;;;;;17.50;16.90;;;20.90;52.30;;;;;;5001038;28;20506;-70
2023/12/19 05:37:44;;;;;;;18.47;17.70;;;20.90;52.30;;;;;;5001012;28;20475;-70
2023/12/19 05:40:12;;;;;;;17.50;16.90;;;20.80;52.30;;;;;;5003922;28;20506;-70
2023/12/19 05:42:39;;;;;;;17.60;17.03;;;20.90;52.40;;;;;;5003645;28;20442;-70
2023/12/19 05:45:07;;;;;;;18.00;17.40;;;20.80;52.40;;;;;;5001622;28;20948;-70
2023/12/19 05:47:34;;;;;;;17.70;17.20;;;20.90;52.50;;;;;;5000836;28;21014;-70
2023/12/19 05:50:02;;;;;;;18.07;17.40;;;20.90;52.50;;;;;;5002507;28;20862;-71
2023/12/19 05:52:29;;;;;;;17.50;16.80;;;20.80;52.50;;;;;;5004081;28;20481;-70
2023/12/19 05:54:56;;;;;;;18.73;18.13;;;20.80;52.50;;;;;;4995611;28;20466;-70
2023/12/19 05:57:23;;;;;;;19.07;18.57;;;20.90;52.50;;;;;;5004234;28;20477;-70
2023/12/19 05:59:50;;;;;;;19.07;18.47;;;20.90;52.50;;;;;;5003585;28;20949;-70
2023/12/19 06:02:18;;;;;;;19.20;18.60;;;20.90;52.50;;;;;;5000550;28;20876;-71
2023/12/19 06:04:45;;;;;;;20.20;19.50;;;20.90;52.60;;;;;;5000499;28;20529;-70
2023/12/19 06:07:14;;;;;;;18.10;17.60;;;20.90;52.60;;;;;;5003209;28;20469;-71
2023/12/19 06:09:40;;;;;;;18.77;18.17;;;20.80;52.50;;;;;;5003876;28;20481;-70
2023/12/19 06:12:08;;;;;;;18.20;17.70;;;20.90;52.60;;;;;;5001162;28;20474;-70
2023/12/19 06:14:37;;;;;;;18.93;18.40;;;20.80;52.50;;;;;;5000341;28;20494;-70
2023/12/19 06:17:04;;;;;;;16.60;16.10;;;20.90;52.60;;;;;;5002594;28;20954;-70
2023/12/19 06:19:31;;;;;;;16.63;16.13;;;20.80;52.50;;;;;;5002903;28;20908;-70
2023/12/19 06:21:59;;;;;;;18.30;17.70;;;20.80;52.50;;;;;;5002403;28;20461;-70
2023/12/19 06:24:27;;;;;;;17.67;17.17;;;20.80;52.50;;;;;;5000375;28;20471;-71
2023/12/19 06:26:54;;;;;;;17.30;16.80;;;20.80;52.50;;;;;;5000282;28;20475;-71
2023/12/19 06:29:21;;;;;;;17.37;16.87;;;20.80;52.50;;;;;;5003604;28;20445;-71
2023/12/19 06:31:48;;;;;;;16.70;16.20;;;20.80;52.50;;;;;;5003630;28;20882;-71
2023/12/19 06:34:15;;;;;;;16.90;16.43;;;20.80;52.50;;;;;;5000151;28;20498;-71
2023/12/19 06:36:42;;;;;;;16.60;16.20;;;20.80;52.50;;;;;;4999783;28;20471;-71
2023/12/19 06:39:09;;;;;;;18.67;18.07;;;20.80;52.50;;;;;;5002628;28;20497;-71
2023/12/19 06:41:37;;;;;;;16.80;16.30;;;20.80;52.50;;;;;;5003613;28;20771;-71
2023/12/19 06:44:04;;;;;;;16.30;15.80;;;20.80;52.50;;;;;;5001573;28;20536;-71
2023/12/19 06:46:31;;;;;;;16.33;15.83;;;20.80;52.50;;;;;;5004223;28;20474;-71
2023/12/19 06:48:58;;;;;;;17.20;16.60;;;20.80;52.50;;;;;;5001098;28;20482;-71
2023/12/19 06:51:26;;;;;;;16.23;15.73;;;20.80;52.60;;;;;;5007738;28;20439;-71
2023/12/19 06:53:56;;;;;;;16.27;15.87;;;20.80;52.50;;;;;;5004437;28;20989;-71
2023/12/19 06:56:26;;;;;;;16.50;16.00;;;20.80;52.60;;;;;;5007352;28;20453;-71
2023/12/19 06:58:54;;;;;;;16.97;16.37;;;20.80;52.70;;;;;;5004390;28;20450;-71
2023/12/19 07:01:21;;;;;;;16.70;16.10;;;20.80;52.70;;;;;;5007146;28;20516;-71
2023/12/19 07:03:48;;;;;;;16.83;16.23;;;20.80;52.80;;;;;;5007113;28;20466;-71
2023/12/19 07:06:15;;;;;;;16.97;16.37;;;20.80;53.10;;;;;;5003739;28;20467;-71
2023/12/19 07:08:42;;;;;;;16.87;16.07;;;20.80;53.40;;;;;;5003678;28;20482;-70
2023/12/19 07:11:10;;;;;;;18.60;17.90;;;20.80;54.00;;;;;;5005587;28;20859;-70
2023/12/19 07:13:37;;;;;;;17.33;16.50;;;20.80;54.20;;;;;;5006954;28;20474;-70
2023/12/19 07:16:06;;;;;;;18.03;17.33;;;20.90;54.40;;;;;;5005057;28;20438;-70
2023/12/19 07:18:33;;;;;;;17.27;16.77;;;20.80;54.30;;;;;;5003628;28;21185;-70
2023/12/19 07:21:00;;;;;;;18.00;17.30;;;20.80;54.70;;;;;;4998626;28;20474;-73
2023/12/19 07:23:28;;;;;;;17.17;16.67;;;20.90;55.30;;;;;;5004832;28;20451;-70
2023/12/19 07:25:56;;;;;;;17.20;16.70;;;20.90;56.10;;;;;;5004697;28;20457;-71
2023/12/19 07:28:23;;;;;;;18.00;17.30;;;20.90;56.80;;;;;;5004873;28;20484;-70
2023/12/19 07:30:50;;;;;;;16.87;16.37;;;20.90;57.00;;;;;;5009455;28;20864;-70
2023/12/19 07:33:19;;;;;;;18.17;17.47;;;21.00;57.20;;;;;;5007316;28;20458;-71
2023/12/19 07:35:45;;;;;;;17.10;16.50;;;21.00;57.20;;;;;;5006950;28;20497;-71
2023/12/19 07:38:12;;;;;;;19.27;18.57;;;21.00;57.10;;;;;;5002939;28;20442;-71
2023/12/19 07:40:39;;;;;;;17.50;17.00;;;21.10;57.20;;;;;;5007245;28;20516;-72
2023/12/19 07:43:06;;;;;;;17.13;16.63;;;21.10;57.10;;;;;;5004713;28;20472;-72
2023/12/19 07:45:33;;;;;;;17.87;17.13;;;21.10;57.10;;;;;;5003535;28;20966;-73
2023/12/19 07:48:00;;;;;;;17.10;16.50;;;21.20;57.20;;;;;;5002611;28;20541;-73
2023/12/19 07:50:28;;;;;;;17.57;17.00;;;21.20;57.20;;;;;;5007042;28;20444;-72
2023/12/19 07:52:55;;;;;;;17.90;17.20;;;21.30;57.30;;;;;;5006682;28;20477;-70
2023/12/19 07:55:22;;;;;;;16.70;16.20;;;21.30;57.10;;;;;;5004408;28;20487;-70
2023/12/19 07:57:49;;;;;;;16.77;16.00;;;21.30;57.00;;;;;;5002551;28;20482;-69
2023/12/19 08:00:17;;;;;;;17.50;17.00;;;21.30;56.70;;;;;;5005913;28;20506;-71
2023/12/19 08:02:49;;;;;;;17.30;16.80;;;21.30;56.40;;;;;;5007594;28;20987;-69
2023/12/19 08:05:16;;;;;;;17.00;16.50;;;21.40;56.30;;;;;;5003916;28;20549;-69
2023/12/19 08:07:44;;;;;;;16.77;16.27;;;21.40;56.20;;;;;;5004091;28;20505;-74
2023/12/19 08:10:11;;;;;;;16.33;15.83;;;21.50;55.90;;;;;;5003685;28;20470;-74
2023/12/19 08:12:39;;;;;;;17.60;17.00;;;21.40;56.00;;;;;;5005489;28;20471;-74
2023/12/19 08:15:06;;;;;;;18.00;17.40;;;21.40;56.10;;;;;;5008310;28;20556;-74
2023/12/19 08:17:34;;;;;;;16.20;15.67;;;21.50;56.20;;;;;;5010178;28;20446;-76
2023/12/19 08:20:01;;;;;;;16.33;15.63;;;21.40;56.10;;;;;;5002143;28;20561;-73
2023/12/19 08:22:30;;;;;;;15.30;14.90;;;21.50;56.20;;;;;;5002246;28;20447;-70
2023/12/19 08:24:57;;;;;;;16.63;16.03;;;21.50;56.30;;;;;;5002520;28;20510;-68
2023/12/19 08:27:28;;;;;;;16.40;15.90;;;21.50;56.10;;;;;;5005680;28;20450;-69
2023/12/19 08:29:55;;;;;;;15.20;14.80;;;21.50;56.00;;;;;;5004987;28;20456;-70
2023/12/19 08:32:22;;;;;;;15.73;15.13;;;21.50;56.10;;;;;;5001480;28;20534;-68
2023/12/19 08:34:49;;;;;;;17.23;16.73;;;21.50;56.00;;;;;;5002169;28;20598;-70
2023/12/19 08:37:16;;;;;;;15.33;14.93;;;21.50;56.00;;;;;;5004932;28;20466;-69
2023/12/19 08:39:42;;;;;;;15.77;15.37;;;21.50;56.00;;;;;;5001028;28;20442;-70
2023/12/19 08:42:11;;;;;;;16.10;15.60;;;21.50;56.10;;;;;;5003173;28;20480;-71
2023/12/19 08:44:40;;;;;;;15.37;14.97;;;21.60;56.20;;;;;;5001868;28;20491;-70
2023/12/19 08:47:06;;;;;;;16.57;16.07;;;21.70;56.10;;;;;;5003377;28;20447;-70
2023/12/19 08:49:33;;;;;;;16.17;15.60;;;21.80;56.20;;;;;;5002138;28;20947;-69
2023/12/19 08:52:00;;;;;;;16.03;15.50;;;21.80;56.10;;;;;;5004192;28;20950;-70
2023/12/19 08:54:27;;;;;;;16.13;15.63;;;21.80;55.90;;;;;;5000321;28;20501;-70
2023/12/19 08:56:54;;;;;;;15.90;15.40;;;21.80;55.50;;;;;;5006001;28;20470;-69
2023/12/19 08:59:22;;;;;;;17.00;16.50;;;21.80;55.20;;;;;;5005261;28;20474;-69
2023/12/19 09:01:49;;;;;;;15.80;15.30;;;21.80;55.00;;;;;;5002650;28;20934;-68
2023/12/19 09:04:17;;;;;;;16.60;16.20;;;21.80;54.90;;;;;;5004112;28;20914;-66
2023/12/19 09:06:44;;;;;;;16.40;16.00;;;21.80;54.70;;;;;;5004876;28;20449;-68
2023/12/19 09:09:11;;;;;;;16.00;15.50;;;21.70;54.70;;;;;;5002517;28;20470;-66
2023/12/19 09:11:38;;;;;;;15.93;15.53;;;21.70;54.60;;;;;;5001292;28;20442;-69
2023/12/19 09:14:05;;;;;;;15.70;15.20;;;21.80;54.80;;;;;;5007839;28;20752;-69
2023/12/19 09:16:33;;;;;;;15.83;15.33;;;21.80;54.70;;;;;;5005243;28;20474;-72
2023/12/19 09:19:01;;;;;;;16.30;15.80;;;21.80;53.80;;;;;;5005902;28;20469;-71
2023/12/19 09:21:27;;;;;;;15.67;14.93;;;21.90;54.30;;;;;;5002256;28;20519;-69
2023/12/19 09:23:55;;;;;;;15.40;14.90;;;21.90;54.70;;;;;;4979239;28;20507;-72
2023/12/19 09:26:21;;;;;;;16.03;15.53;;;21.90;54.80;;;;;;5004639;28;20466;-70
2023/12/19 09:28:48;;;;;;;14.83;14.43;;;21.90;54.90;;;;;;5004499;28;20481;-69
2023/12/19 09:31:15;;;;;;;12.02;11.63;;;21.90;54.90;;;;;;5000652;28;20438;-68
2023/12/19 09:33:44;;;;;;;14.50;14.10;;;21.90;54.70;;;;;;4999515;28;20234;-69
2023/12/19 09:36:22;;;;;;;14.47;13.87;;;21.90;54.60;;;;;;5002804;28;20504;-73
2023/12/19 09:38:51;;;;;;;14.37;13.97;;;22.00;54.80;;;;;;5001453;28;20455;-72
2023/12/19 09:41:22;;;;;;;15.00;14.60;;;22.00;54.70;;;;;;5002823;28;20520;-67
2023/12/19 09:43:49;;;;;;;14.53;14.13;;;22.00;54.30;;;;;;5004391;28;21054;-69
2023/12/19 09:46:16;;;;;;;15.97;15.57;;;22.00;54.20;;;;;;5001552;28;20474;-69
2023/12/19 09:48:50;;;;;;;15.93;15.43;;;21.90;54.10;;;;;;5000812;28;20493;-69
2023/12/19 09:51:26;;;;;;;16.50;16.10;;;21.90;54.20;;;;;;5004136;28;20442;-69
2023/12/19 09:53:55;;;;;;;14.93;14.43;;;21.90;54.30;;;;;;5000839;28;20497;-69
2023/12/19 09:56:23;;;;;;;16.00;15.60;;;21.90;54.60;;;;;;5003891;28;20478;-70
2023/12/19 09:58:50;;;;;;;14.20;13.90;;;21.80;54.50;;;;;;5004340;28;20438;-68
2023/12/19 10:01:18;;;;;;;15.10;14.70;;;21.80;54.70;;;;;;5001102;28;20516;-68
2023/12/19 10:03:49;;;;;;;15.37;14.87;;;21.80;54.90;;;;;;5001199;28;20870;-70
2023/12/19 10:06:17;;;;;;;14.33;13.77;;;21.80;54.90;;;;;;5000708;28;20449;-70
2023/12/19 10:08:45;;;;;;;14.90;14.40;;;21.80;53.70;;;;;;5000580;28;20482;-67
2023/12/19 10:11:18;;;;;;;15.97;15.00;;;21.80;54.00;;;;;;5002390;28;20431;-69
2023/12/19 10:13:46;;;;;;;15.40;15.00;;;21.80;54.10;;;;;;5003805;28;20836;-68
2023/12/19 10:16:17;;;;;;;15.77;15.27;;;21.80;54.40;;;;;;4997462;28;20473;-70
2023/12/19 10:18:54;;;;;;;16.20;15.60;;;21.80;54.80;;;;;;5000404;28;20453;-68
2023/12/19 10:21:24;;;;;;;16.60;16.00;;;21.80;55.70;;;;;;5003167;28;20477;-69
2023/12/19 10:23:51;;;;;;;17.67;16.97;;;21.90;56.10;;;;;;5003533;28;20564;-69
2023/12/19 10:26:29;;;;;;;17.17;16.57;;;21.80;56.10;;;;;;5000942;28;20448;-69
2023/12/19 10:28:57;;;;;;;16.17;15.60;;;21.90;56.40;;;;;;4999883;28;20449;-69
2023/12/19 10:31:24;;;;;;;18.53;17.73;;;21.80;56.40;;;;;;5003574;28;20442;-69
2023/12/19 10:33:55;;;;;;;18.97;18.07;;;21.80;56.50;;;;;;5003411;28;20490;-70
2023/12/19 10:36:24;;;;;;;22.73;21.63;;;21.90;57.50;;;;;;5000387;28;20793;-68
2023/12/19 10:38:51;;;;;;;19.23;18.20;;;21.90;58.20;;;;;;4999559;28;20454;-69
2023/12/19 10:41:21;;;;;;;20.60;19.23;;;21.90;58.40;;;;;;5008359;28;20478;-68
2023/12/19 10:43:50;;;;;;;21.17;19.90;;;21.90;58.60;;;;;;5000177;28;20478;-69
2023/12/19 10:46:19;;;;;;;19.10;18.00;;;21.90;58.60;;;;;;5001625;28;20443;-70
2023/12/19 10:48:47;;;;;;;19.50;18.60;;;21.90;58.50;;;;;;5003575;28;20453;-71
2023/12/19 10:51:20;;;;;;;17.90;16.90;;;21.90;58.50;;;;;;5001374;28;20444;-68
2023/12/19 10:53:58;;;;;;;18.23;17.03;;;21.90;58.50;;;;;;5000119;28;20490;-71
2023/12/19 10:56:26;;;;;;;20.00;18.67;;;21.90;58.30;;;;;;5002947;28;20454;-72
2023/12/19 10:58:59;;;;;;;19.47;18.53;;;21.90;58.30;;;;;;5003652;28;20445;-70
2023/12/19 11:01:28;;;;;;;18.43;17.63;;;21.90;58.40;;;;;;4992021;28;20482;-66
2023/12/19 11:04:00;;;;;;;18.90;17.87;;;21.90;58.10;;;;;;4999915;28;20525;-67
2023/12/19 11:06:37;;;;;;;18.43;17.50;;;21.90;57.80;;;;;;4992204;28;20453;-70
2023/12/19 11:09:08;;;;;;;17.60;16.80;;;21.80;57.90;;;;;;5004915;28;20992;-71
2023/12/19 11:11:38;;;;;;;17.20;16.40;;;21.90;58.20;;;;;;5000598;28;20471;-72
2023/12/19 11:14:06;;;;;;;18.90;17.23;;;22.00;58.20;;;;;;5000592;28;20471;-68
2023/12/19 11:16:42;;;;;;;19.37;18.60;;;21.90;57.70;;;;;;5003446;28;20446;-68
2023/12/19 11:19:16;;;;;;;19.10;18.30;;;21.90;57.50;;;;;;5001620;28;20481;-68
2023/12/19 11:21:50;;;;;;;17.67;16.90;;;21.90;57.40;;;;;;4999692;28;20505;-67
2023/12/19 11:24:24;;;;;;;19.27;18.37;;;21.90;57.30;;;;;;5002010;28;20502;-67
2023/12/19 11:26:56;;;;;;;20.20;19.40;;;21.90;57.20;;;;;;4997037;28;20522;-67
2023/12/19 11:29:50;;;;;;;17.93;17.10;;;21.90;57.10;;;;;;5002621;28;20522;-68
2023/12/19 11:32:37;;;;;;;17.27;16.67;;;21.90;57.00;;;;;;4990725;28;20449;-69
2023/12/19 11:35:14;;;;;;;18.00;17.03;;;21.90;57.30;;;;;;5003465;28;20467;-67
2023/12/19 11:37:44;;;;;;;16.83;16.23;;;22.00;57.40;;;;;;5006126;28;20454;-68
2023/12/19 11:40:37;;;;;;;18.07;17.20;;;22.00;57.40;;;;;;5005257;28;20801;-68
2023/12/19 11:43:04;;;;;;;17.23;16.53;;;22.10;57.20;;;;;;5002725;28;20869;-68
2023/12/19 11:45:36;;;;;;;17.00;16.30;;;22.20;57.00;;;;;;5006548;28;20612;-68
2023/12/19 11:48:23;;;;;;;17.07;16.57;;;22.20;56.80;;;;;;5005509;28;20460;-68
2023/12/19 11:50:50;;;;;;;17.17;16.40;;;22.30;56.70;;;;;;5002843;28;20475;-69
2023/12/19 11:53:25;;;;;;;17.70;17.10;;;22.30;56.50;;;;;;5004703;28;20475;-68
2023/12/19 11:56:02;;;;;;;17.37;16.83;;;22.30;56.40;;;;;;5005625;28;20473;-68
2023/12/19 11:58:29;;;;;;;17.87;17.27;;;22.30;56.30;;;;;;5005562;28;20537;-68
2023/12/19 12:00:59;;;;;;;16.70;16.03;;;22.30;56.10;;;;;;5006139;28;20832;-68
2023/12/19 12:03:26;;;;;;;17.70;17.00;;;22.30;56.00;;;;;;5002824;28;20818;-68
2023/12/19 12:05:54;;;;;;;16.83;16.30;;;22.40;55.90;;;;;;5001173;28;20443;-68
2023/12/19 12:08:23;;;;;;;16.87;16.27;;;22.40;55.80;;;;;;5007280;28;20961;-68
2023/12/19 12:11:04;;;;;;;17.70;17.00;;;22.40;55.60;;;;;;5002653;28;20462;-68
2023/12/19 12:13:33;;;;;;;17.20;16.57;;;22.40;55.50;;;;;;4995830;28;20867;-71
2023/12/19 12:16:01;;;;;;;19.03;18.30;;;22.40;55.30;;;;;;5002934;28;20451;-68
2023/12/19 12:18:30;;;;;;;19.10;18.50;;;22.40;55.30;;;;;;4999211;28;20501;-68
2023/12/19 12:21:07;;;;;;;17.27;16.67;;;22.40;54.90;;;;;;5001736;28;20446;-68
2023/12/19 12:23:35;;;;;;;17.60;17.00;;;22.30;55.10;;;;;;4994846;28;20497;-70
2023/12/19 12:26:05;;;;;;;16.47;15.77;;;22.40;55.30;;;;;;5002602;28;20478;-70
2023/12/19 12:28:33;;;;;;;16.67;16.17;;;22.40;55.30;;;;;;4986442;28;20470;-68
2023/12/19 12:31:00;;;;;;;19.43;18.57;;;22.40;55.20;;;;;;5005681;28;20529;-70
2023/12/19 12:33:28;;;;;;;17.37;16.83;;;22.40;55.10;;;;;;5002183;28;20978;-71